createdAt,value
2016-05-31T00:00:06.219Z,15.72
2016-05-31T00:00:16.219Z,15.83
2016-05-31T00:00:26.234Z,15.83
2016-05-31T00:00:36.234Z,15.73
2016-05-31T00:00:46.236Z,15.76
2016-05-31T00:00:56.252Z,15.76
2016-05-31T00:01:06.252Z,15.78
2016-05-31T00:01:16.252Z,15.81
2016-05-31T00:01:26.267Z,15.83
2016-05-31T00:01:36.267Z,15.76
2016-05-31T00:01:46.270Z,15.76
2016-05-31T00:01:56.270Z,15.76
2016-05-31T00:02:06.286Z,15.76
2016-05-31T00:02:16.286Z,15.85
2016-05-31T00:02:26.286Z,15.81
2016-05-31T00:02:36.302Z,15.84
2016-05-31T00:02:46.305Z,15.75
2016-05-31T00:02:56.305Z,15.87
2016-05-31T00:03:06.305Z,15.85
2016-05-31T00:03:16.320Z,15.8
2016-05-31T00:03:26.320Z,15.83
2016-05-31T00:03:36.336Z,15.83
2016-05-31T00:03:46.338Z,15.75
2016-05-31T00:03:56.338Z,15.83
2016-05-31T00:04:06.338Z,15.85
2016-05-31T00:04:16.354Z,15.8
2016-05-31T00:04:26.354Z,15.72
2016-05-31T00:04:36.354Z,15.81
2016-05-31T00:04:46.372Z,15.76
2016-05-31T00:04:56.372Z,15.73
2016-05-31T00:05:06.372Z,15.76
2016-05-31T00:05:16.372Z,15.73
2016-05-31T00:05:26.388Z,15.81
2016-05-31T00:05:36.388Z,15.72
2016-05-31T00:05:46.406Z,15.76
2016-05-31T00:05:56.406Z,15.73
2016-05-31T00:06:06.406Z,15.76
2016-05-31T00:06:16.406Z,15.73
2016-05-31T00:06:26.422Z,15.76
2016-05-31T00:06:36.422Z,15.81
2016-05-31T00:06:46.440Z,15.75
2016-05-31T00:06:56.424Z,15.81
2016-05-31T00:07:06.440Z,15.75
2016-05-31T00:07:16.440Z,15.76
2016-05-31T00:07:26.440Z,15.8
2016-05-31T00:07:36.455Z,15.7
2016-05-31T00:07:46.458Z,15.7
2016-05-31T00:07:56.896Z,15.75
2016-05-31T00:08:06.474Z,15.73
2016-05-31T00:08:16.474Z,15.69
2016-05-31T00:08:26.505Z,15.66
2016-05-31T00:08:36.474Z,15.75
2016-05-31T00:08:46.493Z,15.65
2016-05-31T00:08:56.493Z,15.78
2016-05-31T00:09:06.493Z,15.62
2016-05-31T00:09:16.508Z,15.66
2016-05-31T00:09:26.508Z,15.69
2016-05-31T00:09:36.524Z,15.7
2016-05-31T00:09:46.527Z,15.73
2016-05-31T00:09:56.527Z,15.73
2016-05-31T00:10:06.527Z,15.66
2016-05-31T00:10:16.542Z,15.75
2016-05-31T00:10:26.542Z,15.66
2016-05-31T00:10:36.542Z,15.75
2016-05-31T00:10:46.560Z,15.66
2016-05-31T00:10:56.560Z,15.72
2016-05-31T00:11:06.560Z,15.69
2016-05-31T00:11:16.576Z,15.67
2016-05-31T00:11:26.560Z,15.52
2016-05-31T00:11:36.576Z,15.57
2016-05-31T00:11:46.594Z,15.62
2016-05-31T00:11:56.579Z,15.62
2016-05-31T00:12:06.594Z,15.62
2016-05-31T00:12:16.610Z,15.63
2016-05-31T00:12:26.594Z,15.57
2016-05-31T00:12:36.610Z,15.62
2016-05-31T00:12:46.612Z,15.63
2016-05-31T00:12:56.612Z,15.75
2016-05-31T00:13:06.628Z,15.51
2016-05-31T00:13:16.628Z,15.67
2016-05-31T00:13:26.628Z,15.51
2016-05-31T00:13:36.643Z,15.57
2016-05-31T00:13:46.646Z,15.51
2016-05-31T00:13:56.646Z,15.55
2016-05-31T00:14:06.646Z,15.59
2016-05-31T00:14:16.662Z,15.57
2016-05-31T00:14:26.662Z,15.54
2016-05-31T00:14:36.662Z,15.52
2016-05-31T00:14:46.665Z,15.54
2016-05-31T00:14:56.680Z,15.54
2016-05-31T00:15:06.680Z,15.6
2016-05-31T00:15:16.680Z,15.51
2016-05-31T00:15:26.696Z,15.62
2016-05-31T00:15:36.696Z,15.55
2016-05-31T00:15:46.699Z,15.6
2016-05-31T00:15:56.699Z,15.55
2016-05-31T00:16:06.715Z,15.57
2016-05-31T00:16:16.715Z,15.62
2016-05-31T00:16:26.730Z,15.52
2016-05-31T00:16:36.730Z,15.55
2016-05-31T00:16:46.732Z,15.52
2016-05-31T00:16:56.732Z,15.54
2016-05-31T00:17:06.748Z,15.55
2016-05-31T00:17:16.748Z,15.57
2016-05-31T00:17:26.748Z,15.59
2016-05-31T00:17:36.764Z,15.6
2016-05-31T00:17:46.766Z,15.5
2016-05-31T00:17:56.766Z,15.48
2016-05-31T00:18:06.766Z,15.52
2016-05-31T00:18:16.781Z,15.5
2016-05-31T00:18:26.781Z,15.6
2016-05-31T00:18:36.781Z,15.57
2016-05-31T00:18:46.801Z,15.51
2016-05-31T00:18:56.801Z,15.52
2016-05-31T00:19:06.801Z,15.48
2016-05-31T00:19:16.816Z,15.55
2016-05-31T00:19:26.816Z,15.59
2016-05-31T00:19:36.816Z,15.6
2016-05-31T00:19:46.819Z,15.6
2016-05-31T00:19:56.835Z,15.57
2016-05-31T00:20:06.835Z,15.5
2016-05-31T00:20:16.835Z,15.5
2016-05-31T00:20:26.851Z,15.57
2016-05-31T00:20:36.851Z,15.57
2016-05-31T00:20:46.853Z,15.59
2016-05-31T00:20:56.868Z,15.6
2016-05-31T00:21:06.868Z,15.62
2016-05-31T00:21:16.868Z,15.54
2016-05-31T00:21:26.868Z,15.5
2016-05-31T00:21:36.884Z,15.52
2016-05-31T00:21:46.886Z,15.54
2016-05-31T00:21:56.886Z,15.51
2016-05-31T00:22:06.902Z,15.52
2016-05-31T00:22:17.370Z,15.57
2016-05-31T00:22:27.573Z,15.62
2016-05-31T00:22:36.917Z,15.52
2016-05-31T00:22:46.920Z,15.57
2016-05-31T00:22:56.920Z,15.5
2016-05-31T00:23:06.936Z,15.51
2016-05-31T00:23:16.936Z,15.54
2016-05-31T00:23:26.936Z,15.6
2016-05-31T00:23:36.936Z,15.59
2016-05-31T00:23:46.953Z,15.52
2016-05-31T00:23:56.953Z,15.51
2016-05-31T00:24:06.953Z,15.6
2016-05-31T00:24:16.969Z,15.57
2016-05-31T00:24:26.969Z,15.57
2016-05-31T00:24:36.969Z,15.51
2016-05-31T00:24:46.973Z,15.52
2016-05-31T00:24:56.989Z,15.6
2016-05-31T00:25:06.989Z,15.55
2016-05-31T00:25:16.989Z,15.59
2016-05-31T00:25:27.004Z,15.54
2016-05-31T00:25:37.004Z,15.55
2016-05-31T00:25:47.006Z,15.54
2016-05-31T00:25:57.006Z,15.55
2016-05-31T00:26:07.022Z,15.5
2016-05-31T00:26:17.022Z,15.59
2016-05-31T00:26:27.022Z,15.52
2016-05-31T00:26:37.038Z,15.51
2016-05-31T00:26:47.041Z,15.5
2016-05-31T00:26:57.041Z,15.52
2016-05-31T00:27:07.041Z,15.5
2016-05-31T00:27:17.056Z,15.57
2016-05-31T00:27:27.056Z,15.48
2016-05-31T00:27:37.056Z,15.52
2016-05-31T00:27:47.074Z,15.51
2016-05-31T00:27:57.074Z,15.45
2016-05-31T00:28:07.074Z,15.5
2016-05-31T00:28:17.089Z,15.52
2016-05-31T00:28:27.089Z,15.52
2016-05-31T00:28:37.105Z,15.5
2016-05-31T00:28:47.093Z,15.52
2016-05-31T00:28:57.109Z,15.52
2016-05-31T00:29:07.109Z,15.54
2016-05-31T00:29:17.109Z,15.52
2016-05-31T00:29:27.125Z,15.51
2016-05-31T00:29:37.125Z,15.47
2016-05-31T00:29:47.127Z,15.5
2016-05-31T00:29:57.142Z,15.48
2016-05-31T00:30:07.142Z,15.51
2016-05-31T00:30:17.142Z,15.48
2016-05-31T00:30:27.158Z,15.5
2016-05-31T00:30:37.158Z,15.52
2016-05-31T00:30:47.161Z,15.5
2016-05-31T00:30:57.177Z,15.48
2016-05-31T00:31:07.177Z,15.48
2016-05-31T00:31:17.177Z,15.5
2016-05-31T00:31:27.177Z,15.51
2016-05-31T00:31:37.192Z,15.47
2016-05-31T00:31:47.194Z,15.51
2016-05-31T00:31:57.194Z,15.47
2016-05-31T00:32:07.194Z,15.54
2016-05-31T00:32:17.210Z,15.55
2016-05-31T00:32:27.210Z,15.48
2016-05-31T00:32:37.210Z,15.52
2016-05-31T00:32:47.213Z,15.59
2016-05-31T00:32:57.228Z,15.52
2016-05-31T00:33:07.228Z,15.51
2016-05-31T00:33:17.244Z,15.41
2016-05-31T00:33:27.244Z,15.39
2016-05-31T00:33:37.244Z,15.45
2016-05-31T00:33:47.263Z,15.45
2016-05-31T00:33:57.263Z,15.47
2016-05-31T00:34:07.263Z,15.48
2016-05-31T00:34:17.263Z,15.5
2016-05-31T00:34:27.278Z,15.48
2016-05-31T00:34:37.278Z,15.54
2016-05-31T00:34:47.281Z,15.51
2016-05-31T00:34:57.297Z,15.43
2016-05-31T00:35:07.297Z,15.52
2016-05-31T00:35:17.297Z,15.5
2016-05-31T00:35:27.297Z,15.48
2016-05-31T00:35:37.313Z,15.37
2016-05-31T00:35:47.330Z,15.51
2016-05-31T00:35:57.315Z,15.51
2016-05-31T00:36:07.330Z,15.47
2016-05-31T00:36:17.330Z,15.44
2016-05-31T00:36:27.330Z,15.54
2016-05-31T00:36:37.330Z,15.5
2016-05-31T00:36:47.349Z,15.47
2016-05-31T00:36:57.349Z,15.48
2016-05-31T00:37:07.349Z,15.51
2016-05-31T00:37:17.958Z,15.45
2016-05-31T00:37:27.364Z,15.41
2016-05-31T00:37:37.552Z,15.47
2016-05-31T00:37:47.382Z,15.48
2016-05-31T00:37:57.382Z,15.45
2016-05-31T00:38:07.382Z,15.43
2016-05-31T00:38:17.382Z,15.37
2016-05-31T00:38:27.398Z,15.5
2016-05-31T00:38:37.398Z,15.48
2016-05-31T00:38:47.402Z,15.48
2016-05-31T00:38:57.402Z,15.45
2016-05-31T00:39:07.417Z,15.54
2016-05-31T00:39:17.433Z,15.52
2016-05-31T00:39:27.417Z,15.45
2016-05-31T00:39:37.433Z,15.51
2016-05-31T00:39:47.435Z,15.47
2016-05-31T00:39:57.451Z,15.45
2016-05-31T00:40:07.451Z,15.44
2016-05-31T00:40:17.451Z,15.43
2016-05-31T00:40:27.451Z,15.48
2016-05-31T00:40:37.466Z,15.44
2016-05-31T00:40:47.468Z,15.44
2016-05-31T00:40:57.468Z,15.36
2016-05-31T00:41:07.484Z,15.45
2016-05-31T00:41:17.484Z,15.47
2016-05-31T00:41:27.484Z,15.35
2016-05-31T00:41:37.484Z,15.5
2016-05-31T00:41:47.502Z,15.45
2016-05-31T00:41:57.502Z,15.32
2016-05-31T00:42:07.502Z,15.41
2016-05-31T00:42:17.518Z,15.45
2016-05-31T00:42:27.518Z,15.33
2016-05-31T00:42:37.518Z,15.35
2016-05-31T00:42:47.521Z,15.44
2016-05-31T00:42:57.537Z,15.39
2016-05-31T00:43:07.537Z,15.36
2016-05-31T00:43:17.537Z,15.29
2016-05-31T00:43:27.552Z,15.37
2016-05-31T00:43:37.552Z,15.41
2016-05-31T00:43:47.555Z,15.37
2016-05-31T00:43:57.571Z,15.36
2016-05-31T00:44:07.571Z,15.36
2016-05-31T00:44:17.571Z,15.36
2016-05-31T00:44:27.571Z,15.36
2016-05-31T00:44:37.587Z,15.44
2016-05-31T00:44:47.589Z,15.45
2016-05-31T00:44:57.589Z,15.44
2016-05-31T00:45:07.604Z,15.41
2016-05-31T00:45:17.604Z,15.41
2016-05-31T00:45:27.604Z,15.36
2016-05-31T00:45:37.620Z,15.35
2016-05-31T00:45:47.623Z,15.41
2016-05-31T00:45:57.623Z,15.41
2016-05-31T00:46:07.623Z,15.36
2016-05-31T00:46:17.638Z,15.37
2016-05-31T00:46:27.638Z,15.41
2016-05-31T00:46:37.638Z,15.3
2016-05-31T00:46:47.657Z,15.36
2016-05-31T00:46:57.657Z,15.35
2016-05-31T00:47:07.657Z,15.35
2016-05-31T00:47:17.673Z,15.33
2016-05-31T00:47:27.673Z,15.41
2016-05-31T00:47:37.688Z,15.39
2016-05-31T00:47:47.676Z,15.33
2016-05-31T00:47:57.691Z,15.43
2016-05-31T00:48:07.691Z,15.35
2016-05-31T00:48:17.691Z,15.35
2016-05-31T00:48:27.707Z,15.41
2016-05-31T00:48:37.707Z,15.32
2016-05-31T00:48:47.710Z,15.41
2016-05-31T00:48:57.710Z,15.43
2016-05-31T00:49:07.726Z,15.37
2016-05-31T00:49:17.726Z,15.35
2016-05-31T00:49:27.726Z,15.32
2016-05-31T00:49:37.741Z,15.39
2016-05-31T00:49:47.743Z,15.35
2016-05-31T00:49:57.743Z,15.32
2016-05-31T00:50:07.759Z,15.39
2016-05-31T00:50:17.759Z,15.39
2016-05-31T00:50:27.759Z,15.41
2016-05-31T00:50:37.759Z,15.35
2016-05-31T00:50:47.776Z,15.39
2016-05-31T00:50:57.776Z,15.41
2016-05-31T00:51:07.776Z,15.35
2016-05-31T00:51:17.792Z,15.33
2016-05-31T00:51:27.792Z,15.35
2016-05-31T00:51:37.792Z,15.33
2016-05-31T00:51:47.812Z,15.36
2016-05-31T00:51:57.812Z,15.35
2016-05-31T00:52:07.812Z,15.32
2016-05-31T00:52:17.812Z,15.35
2016-05-31T00:52:27.827Z,15.39
2016-05-31T00:52:37.827Z,15.36
2016-05-31T00:52:47.939Z,15.35
2016-05-31T00:52:57.845Z,15.35
2016-05-31T00:53:08.048Z,15.32
2016-05-31T00:53:17.845Z,15.33
2016-05-31T00:53:27.845Z,15.32
2016-05-31T00:53:37.861Z,15.33
2016-05-31T00:53:47.864Z,15.29
2016-05-31T00:53:57.864Z,15.35
2016-05-31T00:54:07.879Z,15.32
2016-05-31T00:54:17.879Z,15.36
2016-05-31T00:54:27.879Z,15.32
2016-05-31T00:54:37.895Z,15.39
2016-05-31T00:54:47.897Z,15.32
2016-05-31T00:54:57.897Z,15.26
2016-05-31T00:55:07.897Z,15.27
2016-05-31T00:55:17.912Z,15.35
2016-05-31T00:55:27.912Z,15.37
2016-05-31T00:55:37.912Z,15.25
2016-05-31T00:55:47.915Z,15.33
2016-05-31T00:55:57.931Z,15.32
2016-05-31T00:56:07.931Z,15.35
2016-05-31T00:56:17.947Z,15.33
2016-05-31T00:56:27.947Z,15.29
2016-05-31T00:56:37.947Z,15.29
2016-05-31T00:56:47.950Z,15.29
2016-05-31T00:56:57.965Z,15.26
2016-05-31T00:57:07.965Z,15.27
2016-05-31T00:57:17.965Z,15.22
2016-05-31T00:57:27.981Z,15.26
2016-05-31T00:57:37.981Z,15.26
2016-05-31T00:57:47.983Z,15.33
2016-05-31T00:57:57.983Z,15.29
2016-05-31T00:58:07.999Z,15.27
2016-05-31T00:58:17.999Z,15.32
2016-05-31T00:58:27.999Z,15.26
2016-05-31T00:58:38.014Z,15.29
2016-05-31T00:58:48.017Z,15.26
2016-05-31T00:58:58.033Z,15.32
2016-05-31T00:59:08.033Z,15.27
2016-05-31T00:59:18.033Z,15.3
2016-05-31T00:59:28.033Z,15.3
2016-05-31T00:59:38.033Z,15.22
2016-05-31T00:59:48.067Z,15.27
2016-05-31T00:59:58.051Z,15.26
2016-05-31T01:00:08.051Z,15.27
2016-05-31T01:00:18.067Z,15.26
2016-05-31T01:00:28.067Z,15.27
2016-05-31T01:00:38.067Z,15.26
2016-05-31T01:00:48.085Z,15.29
2016-05-31T01:00:58.085Z,15.22
2016-05-31T01:01:08.085Z,15.22
2016-05-31T01:01:18.085Z,15.27
2016-05-31T01:01:28.100Z,15.32
2016-05-31T01:01:38.100Z,15.25
2016-05-31T01:01:48.103Z,15.3
2016-05-31T01:01:58.103Z,15.3
2016-05-31T01:02:08.119Z,15.29
2016-05-31T01:02:18.135Z,15.29
2016-05-31T01:02:28.119Z,15.29
2016-05-31T01:02:38.135Z,15.27
2016-05-31T01:02:48.138Z,15.26
2016-05-31T01:02:58.138Z,15.29
2016-05-31T01:03:08.153Z,15.22
2016-05-31T01:03:18.153Z,15.27
2016-05-31T01:03:28.169Z,15.3
2016-05-31T01:03:38.169Z,15.29
2016-05-31T01:03:48.172Z,15.27
2016-05-31T01:03:58.172Z,15.27
2016-05-31T01:04:08.172Z,15.27
2016-05-31T01:04:18.187Z,15.32
2016-05-31T01:04:28.187Z,15.17
2016-05-31T01:04:38.187Z,15.29
2016-05-31T01:04:48.205Z,15.26
2016-05-31T01:04:58.221Z,15.26
2016-05-31T01:05:08.205Z,15.26
2016-05-31T01:05:18.221Z,15.22
2016-05-31T01:05:28.221Z,15.26
2016-05-31T01:05:38.221Z,15.18
2016-05-31T01:05:48.224Z,15.33
2016-05-31T01:05:58.239Z,15.3
2016-05-31T01:06:08.239Z,15.32
2016-05-31T01:06:18.239Z,15.26
2016-05-31T01:06:28.255Z,15.29
2016-05-31T01:06:38.255Z,15.33
2016-05-31T01:06:48.258Z,15.27
2016-05-31T01:06:58.258Z,15.26
2016-05-31T01:07:08.274Z,15.25
2016-05-31T01:07:18.274Z,15.19
2016-05-31T01:07:28.383Z,15.18
2016-05-31T01:07:38.289Z,15.29
2016-05-31T01:07:48.572Z,15.29
2016-05-31T01:07:58.697Z,15.22
2016-05-31T01:08:08.307Z,15.27
2016-05-31T01:08:18.307Z,15.25
2016-05-31T01:08:28.307Z,15.26
2016-05-31T01:08:38.307Z,15.23
2016-05-31T01:08:48.325Z,15.27
2016-05-31T01:08:58.325Z,15.22
2016-05-31T01:09:08.325Z,15.29
2016-05-31T01:09:18.325Z,15.3
2016-05-31T01:09:28.341Z,15.25
2016-05-31T01:09:38.341Z,15.3
2016-05-31T01:09:48.344Z,15.26
2016-05-31T01:09:58.360Z,15.32
2016-05-31T01:10:08.360Z,15.22
2016-05-31T01:10:18.360Z,15.22
2016-05-31T01:10:28.375Z,15.23
2016-05-31T01:10:38.375Z,15.23
2016-05-31T01:10:48.377Z,15.15
2016-05-31T01:10:58.377Z,15.26
2016-05-31T01:11:08.393Z,15.23
2016-05-31T01:11:18.393Z,15.22
2016-05-31T01:11:28.393Z,15.15
2016-05-31T01:11:38.409Z,15.3
2016-05-31T01:11:48.412Z,15.27
2016-05-31T01:11:58.412Z,15.26
2016-05-31T01:12:08.427Z,15.22
2016-05-31T01:12:18.427Z,15.19
2016-05-31T01:12:28.427Z,15.25
2016-05-31T01:12:38.427Z,15.22
2016-05-31T01:12:48.430Z,15.27
2016-05-31T01:12:58.446Z,15.23
2016-05-31T01:13:08.446Z,15.23
2016-05-31T01:13:18.461Z,15.26
2016-05-31T01:13:28.461Z,15.26
2016-05-31T01:13:38.461Z,15.19
2016-05-31T01:13:48.463Z,15.27
2016-05-31T01:13:58.479Z,15.18
2016-05-31T01:14:08.479Z,15.15
2016-05-31T01:14:18.479Z,15.25
2016-05-31T01:14:28.495Z,15.19
2016-05-31T01:14:38.495Z,15.19
2016-05-31T01:14:48.498Z,15.29
2016-05-31T01:14:58.513Z,15.29
2016-05-31T01:15:08.513Z,15.19
2016-05-31T01:15:18.513Z,15.27
2016-05-31T01:15:28.529Z,15.23
2016-05-31T01:15:38.529Z,15.29
2016-05-31T01:15:48.532Z,15.26
2016-05-31T01:15:58.532Z,15.19
2016-05-31T01:16:08.548Z,15.18
2016-05-31T01:16:18.548Z,15.26
2016-05-31T01:16:28.548Z,15.26
2016-05-31T01:16:38.563Z,15.15
2016-05-31T01:16:48.565Z,15.22
2016-05-31T01:16:58.565Z,15.18
2016-05-31T01:17:08.565Z,15.26
2016-05-31T01:17:18.581Z,15.22
2016-05-31T01:17:28.581Z,15.08
2016-05-31T01:17:38.596Z,15.23
2016-05-31T01:17:48.599Z,15.18
2016-05-31T01:17:58.599Z,15.15
2016-05-31T01:18:08.599Z,15.15
2016-05-31T01:18:18.615Z,15.15
2016-05-31T01:18:28.615Z,15.17
2016-05-31T01:18:38.615Z,15.25
2016-05-31T01:18:48.618Z,15.25
2016-05-31T01:18:58.634Z,15.25
2016-05-31T01:19:08.634Z,15.26
2016-05-31T01:19:18.634Z,15.11
2016-05-31T01:19:28.649Z,15.19
2016-05-31T01:19:38.649Z,15.22
2016-05-31T01:19:48.651Z,15.19
2016-05-31T01:19:58.651Z,15.26
2016-05-31T01:20:13.839Z,15.25
2016-05-31T01:20:23.792Z,15.25
2016-05-31T01:20:33.808Z,15.19
2016-05-31T01:20:43.808Z,15.15
2016-05-31T01:20:53.811Z,15.08
2016-05-31T01:21:03.826Z,15.19
2016-05-31T01:21:13.826Z,15.18
2016-05-31T01:21:23.826Z,15.17
2016-05-31T01:21:33.842Z,15.18
2016-05-31T01:21:43.842Z,15.23
2016-05-31T01:21:53.845Z,15.17
2016-05-31T01:22:03.845Z,15.18
2016-05-31T01:22:13.954Z,15.14
2016-05-31T01:22:23.860Z,15.15
2016-05-31T01:22:35.251Z,15.14
2016-05-31T01:22:45.220Z,15.18
2016-05-31T01:22:55.284Z,15.23
2016-05-31T01:23:05.222Z,15.22
2016-05-31T01:23:15.222Z,15.11
2016-05-31T01:23:25.237Z,15.14
2016-05-31T01:23:35.237Z,15.26
2016-05-31T01:23:45.269Z,15.18
2016-05-31T01:23:55.257Z,15.23
2016-05-31T01:24:05.257Z,15.14
2016-05-31T01:24:15.257Z,15.19
2016-05-31T01:24:25.320Z,15.25
2016-05-31T01:24:35.273Z,15.19
2016-05-31T01:24:45.273Z,15.17
2016-05-31T01:24:55.275Z,15.25
2016-05-31T01:25:05.306Z,15.15
2016-05-31T01:25:15.290Z,15.11
2016-05-31T01:25:25.290Z,15.15
2016-05-31T01:25:35.306Z,15.17
2016-05-31T01:25:45.306Z,15.18
2016-05-31T01:25:55.309Z,15.12
2016-05-31T01:26:05.309Z,15.12
2016-05-31T01:26:15.356Z,15.12
2016-05-31T01:26:25.325Z,15.14
2016-05-31T01:26:35.325Z,15.14
2016-05-31T01:26:45.340Z,15.14
2016-05-31T01:26:55.342Z,15.19
2016-05-31T01:27:05.670Z,15.18
2016-05-31T01:27:15.483Z,15.22
2016-05-31T01:27:25.358Z,15.18
2016-05-31T01:27:35.358Z,15.19
2016-05-31T01:27:45.358Z,15.18
2016-05-31T01:27:55.376Z,15.17
2016-05-31T01:28:05.376Z,15.22
2016-05-31T01:28:15.392Z,15.14
2016-05-31T01:28:25.392Z,15.12
2016-05-31T01:28:35.392Z,15.12
2016-05-31T01:28:45.392Z,15.12
2016-05-31T01:28:55.395Z,15.15
2016-05-31T01:29:05.411Z,15.19
2016-05-31T01:29:15.411Z,15.23
2016-05-31T01:29:25.411Z,15.14
2016-05-31T01:29:35.426Z,15.12
2016-05-31T01:29:45.426Z,15.11
2016-05-31T01:29:55.429Z,15.14
2016-05-31T01:30:05.445Z,15.12
2016-05-31T01:30:15.445Z,15.17
2016-05-31T01:30:25.445Z,15.17
2016-05-31T01:30:35.445Z,15.22
2016-05-31T01:30:45.461Z,15.15
2016-05-31T01:30:55.463Z,15.12
2016-05-31T01:31:05.478Z,15.15
2016-05-31T01:31:15.478Z,15.18
2016-05-31T01:31:25.478Z,15.18
2016-05-31T01:31:35.478Z,15.12
2016-05-31T01:31:45.478Z,15.12
2016-05-31T01:31:55.497Z,15.15
2016-05-31T01:32:05.497Z,15.07
2016-05-31T01:32:15.497Z,15.17
2016-05-31T01:32:25.512Z,15.11
2016-05-31T01:32:35.512Z,15.17
2016-05-31T01:32:45.512Z,15.18
2016-05-31T01:32:55.530Z,15.11
2016-05-31T01:33:05.530Z,15.12
2016-05-31T01:33:15.530Z,15.08
2016-05-31T01:33:25.530Z,15.12
2016-05-31T01:33:35.546Z,15.12
2016-05-31T01:33:45.546Z,15.11
2016-05-31T01:33:55.550Z,15.11
2016-05-31T01:34:05.565Z,15.1
2016-05-31T01:34:15.565Z,15.12
2016-05-31T01:34:25.565Z,15.12
2016-05-31T01:34:35.565Z,15.08
2016-05-31T01:34:45.581Z,15.17
2016-05-31T01:34:55.583Z,15.1
2016-05-31T01:35:05.583Z,15.08
2016-05-31T01:35:15.599Z,15.11
2016-05-31T01:35:25.599Z,15.11
2016-05-31T01:35:35.599Z,15.08
2016-05-31T01:35:45.599Z,15.12
2016-05-31T01:35:55.616Z,15.12
2016-05-31T01:36:05.616Z,15.14
2016-05-31T01:36:15.616Z,15.1
2016-05-31T01:36:25.632Z,15.14
2016-05-31T01:36:35.632Z,15.11
2016-05-31T01:36:45.632Z,15.15
2016-05-31T01:36:55.651Z,15.14
2016-05-31T01:37:05.651Z,15.18
2016-05-31T01:37:15.651Z,15.07
2016-05-31T01:37:25.651Z,15.17
2016-05-31T01:37:35.667Z,15.07
2016-05-31T01:37:45.667Z,15.17
2016-05-31T01:37:55.669Z,15.08
2016-05-31T01:38:05.685Z,15.07
2016-05-31T01:38:15.997Z,15.08
2016-05-31T01:38:25.685Z,15.11
2016-05-31T01:38:35.700Z,14.96
2016-05-31T01:38:45.700Z,15.04
2016-05-31T01:38:55.703Z,15.07
2016-05-31T01:39:05.703Z,15.08
2016-05-31T01:39:15.719Z,14.96
2016-05-31T01:39:25.719Z,15.02
2016-05-31T01:39:35.719Z,15
2016-05-31T01:39:45.735Z,15.04
2016-05-31T01:39:55.737Z,14.99
2016-05-31T01:40:05.737Z,14.96
2016-05-31T01:40:15.752Z,15
2016-05-31T01:40:25.752Z,14.97
2016-05-31T01:40:35.752Z,15.05
2016-05-31T01:40:45.752Z,15.08
2016-05-31T01:40:55.771Z,15.04
2016-05-31T01:41:05.771Z,14.96
2016-05-31T01:41:15.771Z,15.02
2016-05-31T01:41:25.786Z,14.99
2016-05-31T01:41:35.786Z,14.94
2016-05-31T01:41:45.786Z,15
2016-05-31T01:41:55.804Z,15.04
2016-05-31T01:42:05.804Z,14.96
2016-05-31T01:42:15.804Z,14.93
2016-05-31T01:42:25.820Z,14.99
2016-05-31T01:42:35.820Z,14.97
2016-05-31T01:42:45.820Z,15.05
2016-05-31T01:42:55.823Z,15.02
2016-05-31T01:43:05.823Z,15.04
2016-05-31T01:43:15.838Z,15.05
2016-05-31T01:43:25.838Z,15
2016-05-31T01:43:35.838Z,15.02
2016-05-31T01:43:45.854Z,14.97
2016-05-31T01:43:55.857Z,15.07
2016-05-31T01:44:05.857Z,15.02
2016-05-31T01:44:15.873Z,14.94
2016-05-31T01:44:25.873Z,15
2016-05-31T01:44:35.873Z,15.02
2016-05-31T01:44:45.873Z,15
2016-05-31T01:44:55.891Z,14.99
2016-05-31T01:45:05.891Z,15.04
2016-05-31T01:45:15.891Z,15.02
2016-05-31T01:45:25.907Z,15.02
2016-05-31T01:45:35.907Z,14.99
2016-05-31T01:45:45.907Z,15.08
2016-05-31T01:45:55.924Z,14.97
2016-05-31T01:46:05.924Z,14.97
2016-05-31T01:46:15.924Z,14.99
2016-05-31T01:46:25.924Z,14.99
2016-05-31T01:46:35.940Z,14.97
2016-05-31T01:46:45.940Z,15.04
2016-05-31T01:46:55.943Z,14.96
2016-05-31T01:47:05.959Z,15.02
2016-05-31T01:47:15.959Z,15.02
2016-05-31T01:47:25.959Z,14.99
2016-05-31T01:47:35.974Z,15.05
2016-05-31T01:47:45.974Z,15.02
2016-05-31T01:47:55.977Z,15
2016-05-31T01:48:05.977Z,14.99
2016-05-31T01:48:15.993Z,14.99
2016-05-31T01:48:25.993Z,14.99
2016-05-31T01:48:35.993Z,15.05
2016-05-31T01:48:45.993Z,15.02
2016-05-31T01:48:56.012Z,15
2016-05-31T01:49:06.012Z,15.04
2016-05-31T01:49:16.012Z,14.99
2016-05-31T01:49:26.027Z,15.04
2016-05-31T01:49:36.027Z,15.04
2016-05-31T01:49:46.027Z,14.99
2016-05-31T01:49:56.029Z,15
2016-05-31T01:50:06.045Z,14.96
2016-05-31T01:50:16.045Z,15.07
2016-05-31T01:50:26.045Z,15.02
2016-05-31T01:50:36.060Z,14.99
2016-05-31T01:50:46.060Z,14.94
2016-05-31T01:50:56.063Z,14.99
2016-05-31T01:51:06.063Z,14.94
2016-05-31T01:51:16.095Z,15.04
2016-05-31T01:51:26.079Z,14.97
2016-05-31T01:51:36.079Z,14.99
2016-05-31T01:51:46.095Z,15.02
2016-05-31T01:51:56.098Z,14.97
2016-05-31T01:52:06.098Z,14.97
2016-05-31T01:52:16.113Z,14.9
2016-05-31T01:52:26.113Z,14.92
2016-05-31T01:52:36.113Z,14.93
2016-05-31T01:52:46.113Z,14.99
2016-05-31T01:52:57.037Z,14.94
2016-05-31T01:53:06.147Z,14.93
2016-05-31T01:53:16.772Z,14.97
2016-05-31T01:53:26.147Z,14.93
2016-05-31T01:53:36.147Z,14.97
2016-05-31T01:53:46.147Z,14.96
2016-05-31T01:53:56.165Z,14.94
2016-05-31T01:54:06.165Z,14.9
2016-05-31T01:54:16.165Z,14.87
2016-05-31T01:54:26.165Z,14.97
2016-05-31T01:54:36.181Z,14.96
2016-05-31T01:54:46.181Z,14.94
2016-05-31T01:54:56.199Z,14.93
2016-05-31T01:55:06.184Z,14.85
2016-05-31T01:55:16.199Z,14.99
2016-05-31T01:55:26.199Z,14.96
2016-05-31T01:55:36.199Z,14.89
2016-05-31T01:55:46.215Z,14.9
2016-05-31T01:55:56.218Z,14.97
2016-05-31T01:56:06.218Z,14.85
2016-05-31T01:56:16.234Z,14.97
2016-05-31T01:56:26.234Z,14.99
2016-05-31T01:56:36.234Z,14.92
2016-05-31T01:56:46.249Z,14.85
2016-05-31T01:56:56.251Z,14.87
2016-05-31T01:57:06.251Z,14.87
2016-05-31T01:57:16.251Z,14.79
2016-05-31T01:57:26.267Z,14.89
2016-05-31T01:57:36.267Z,14.92
2016-05-31T01:57:46.267Z,14.92
2016-05-31T01:57:56.286Z,14.87
2016-05-31T01:58:06.286Z,14.89
2016-05-31T01:58:16.286Z,14.82
2016-05-31T01:58:26.286Z,14.9
2016-05-31T01:58:36.301Z,14.85
2016-05-31T01:58:46.301Z,14.87
2016-05-31T01:58:56.303Z,14.9
2016-05-31T01:59:06.319Z,14.87
2016-05-31T01:59:16.319Z,14.87
2016-05-31T01:59:26.319Z,14.92
2016-05-31T01:59:36.334Z,14.89
2016-05-31T01:59:46.334Z,14.87
2016-05-31T01:59:56.337Z,14.87
2016-05-31T02:00:06.337Z,14.89
2016-05-31T02:00:16.353Z,14.89
2016-05-31T02:00:26.353Z,14.86
2016-05-31T02:00:36.353Z,14.89
2016-05-31T02:00:46.369Z,14.82
2016-05-31T02:00:56.372Z,14.9
2016-05-31T02:01:06.372Z,14.9
2016-05-31T02:01:16.372Z,14.89
2016-05-31T02:01:26.387Z,14.9
2016-05-31T02:01:36.387Z,14.93
2016-05-31T02:01:46.387Z,14.79
2016-05-31T02:01:56.406Z,14.87
2016-05-31T02:02:06.406Z,14.89
2016-05-31T02:02:16.406Z,14.89
2016-05-31T02:02:26.406Z,14.86
2016-05-31T02:02:36.422Z,14.9
2016-05-31T02:02:46.422Z,14.86
2016-05-31T02:02:56.439Z,14.82
2016-05-31T02:03:06.439Z,14.85
2016-05-31T02:03:16.439Z,14.85
2016-05-31T02:03:26.439Z,14.85
2016-05-31T02:03:36.439Z,14.87
2016-05-31T02:03:46.455Z,14.87
2016-05-31T02:03:56.458Z,14.9
2016-05-31T02:04:06.458Z,14.9
2016-05-31T02:04:16.473Z,14.86
2016-05-31T02:04:26.473Z,14.89
2016-05-31T02:04:36.473Z,14.85
2016-05-31T02:04:46.489Z,14.86
2016-05-31T02:04:56.491Z,14.87
2016-05-31T02:05:06.491Z,14.81
2016-05-31T02:05:16.491Z,14.85
2016-05-31T02:05:26.507Z,14.87
2016-05-31T02:05:36.507Z,14.89
2016-05-31T02:05:46.507Z,14.85
2016-05-31T02:05:56.511Z,14.85
2016-05-31T02:06:06.526Z,14.82
2016-05-31T02:06:16.526Z,14.9
2016-05-31T02:06:26.526Z,14.86
2016-05-31T02:06:36.542Z,14.89
2016-05-31T02:06:46.542Z,14.81
2016-05-31T02:06:56.544Z,14.81
2016-05-31T02:07:06.544Z,14.81
2016-05-31T02:07:16.560Z,14.85
2016-05-31T02:07:26.560Z,14.77
2016-05-31T02:07:36.919Z,14.79
2016-05-31T02:07:46.575Z,14.89
2016-05-31T02:07:56.593Z,14.85
2016-05-31T02:08:06.577Z,14.85
2016-05-31T02:08:16.593Z,14.87
2016-05-31T02:08:26.593Z,14.78
2016-05-31T02:08:36.593Z,14.89
2016-05-31T02:08:46.608Z,14.87
2016-05-31T02:08:56.611Z,14.86
2016-05-31T02:09:06.611Z,14.77
2016-05-31T02:09:16.611Z,14.85
2016-05-31T02:09:26.627Z,14.77